Decoded Metar for LYNI (NIS in SERBIA) (IATA:INI) | Meteo·Mobile Aviation Weather
aviador You're here:

LYNI Decoded Metar

NIS in SERBIA
Report Time2018-09-22 08:30:00
UTC Time2018-09-22 09:05:07
Flight Rules vfr VFR
WindVRB at 02 kt
Visibility9999 m
Phenomena:N/A
Clouds:N/A
Expected CloudBase > 4,400 ft AGL from Temp-Dew spread
CeilingNone
Temp22°C (ISA +8)
Dew Point11°C (50% RH)
AAT21.6°C
QNH1018 hPa
Density Alt1,644 ft
Elevation663 ft
Report Wrong Elevation
Raw Report
METAR LYNI 220830Z VRB02KT CAVOK 22/11 Q1018 NOSIG=

Extra information for LYNI:More info

Metar Taf Metar & Taf Last 4 Metars F.Rules Stats Wind Profile Meteogram Temp Stats Airport Information Weather charts Add Link Nearby VenuesMetar ALERT Operation Metar Decoded Social comments